Time;durP1;ratioP1;P1;durP2;ratioP2;P2;SDS_P1;SDS_P2;PMS_P1;PMS_P2;Temp;Humidity;BMP_temperature;BMP_pressure;BME280_temperature;BME280_humidity;BME280_pressure;Samples;Min_cycle;Max_cycle;Signal;HPM_P1;HPM_P2
2022/10/06 00:01:25;;;;;;;18.88;13.30;;;21.40;66.00;;;;;;4904746;29;20047;-71
2022/10/06 00:03:51;;;;;;;19.55;13.60;;;21.30;65.90;;;;;;4939189;29;20032;-71
2022/10/06 00:06:17;;;;;;;20.67;14.25;;;21.40;66.00;;;;;;4916719;29;20446;-71
2022/10/06 00:08:44;;;;;;;22.10;12.82;;;21.40;66.60;;;;;;4920747;29;20445;-71
2022/10/06 00:11:11;;;;;;;22.73;12.85;;;21.40;66.00;;;;;;4920358;29;20036;-71
2022/10/06 00:13:38;;;;;;;20.15;13.35;;;21.40;66.00;;;;;;4920886;29;20028;-71
2022/10/06 00:16:11;;;;;;;18.02;13.25;;;21.40;65.90;;;;;;4935054;29;20092;-71
2022/10/06 00:18:37;;;;;;;19.80;13.30;;;21.40;66.00;;;;;;4921508;29;20024;-70
2022/10/06 00:21:03;;;;;;;17.73;13.27;;;21.40;66.00;;;;;;4922636;29;20031;-71
2022/10/06 00:23:30;;;;;;;18.70;13.05;;;21.40;66.00;;;;;;4913946;29;20429;-71
2022/10/06 00:25:56;;;;;;;19.15;13.07;;;21.40;66.00;;;;;;4921002;29;20386;-71
2022/10/06 00:28:22;;;;;;;20.75;13.27;;;21.40;66.00;;;;;;4912632;29;20036;-71
2022/10/06 00:30:49;;;;;;;17.92;13.02;;;21.40;66.70;;;;;;4919944;29;20043;-71
2022/10/06 00:33:16;;;;;;;17.58;12.55;;;21.40;66.10;;;;;;4896573;29;20095;-71
2022/10/06 00:35:43;;;;;;;19.38;12.30;;;21.40;66.10;;;;;;4915282;29;20028;-71
2022/10/06 00:38:11;;;;;;;18.52;12.65;;;21.40;66.10;;;;;;4919469;29;20036;-72
2022/10/06 00:40:46;;;;;;;19.20;12.40;;;21.40;66.10;;;;;;4921482;29;20020;-72
2022/10/06 00:43:34;;;;;;;17.75;12.25;;;21.30;66.10;;;;;;4936508;29;20032;-72
2022/10/06 00:46:00;;;;;;;18.42;12.25;;;21.40;66.10;;;;;;4902204;29;20028;-72
2022/10/06 00:48:27;;;;;;;19.08;12.35;;;21.30;66.10;;;;;;4915939;29;20032;-71
2022/10/06 00:50:56;;;;;;;17.27;13.00;;;21.40;66.10;;;;;;4928689;29;20428;-71
2022/10/06 00:53:26;;;;;;;18.67;12.75;;;21.40;66.20;;;;;;4919321;29;20556;-71
2022/10/06 00:55:53;;;;;;;17.67;12.55;;;21.40;66.20;;;;;;4915708;29;20028;-71
2022/10/06 00:58:20;;;;;;;18.02;12.38;;;21.40;66.20;;;;;;4937409;29;20040;-71
2022/10/06 01:00:48;;;;;;;17.30;11.68;;;21.40;66.20;;;;;;4926730;29;20080;-71
2022/10/06 01:03:42;;;;;;;17.10;12.07;;;21.40;66.20;;;;;;4924999;29;20027;-71
2022/10/06 01:06:08;;;;;;;16.52;12.10;;;21.30;66.10;;;;;;4915430;29;20048;-71
2022/10/06 01:08:35;;;;;;;18.23;11.80;;;21.40;66.20;;;;;;4900539;29;20095;-72
2022/10/06 01:11:01;;;;;;;17.75;11.50;;;21.30;66.10;;;;;;4920894;29;20024;-71
2022/10/06 01:13:29;;;;;;;18.65;11.93;;;21.40;66.10;;;;;;4924952;29;20067;-71
2022/10/06 01:16:18;;;;;;;17.17;11.63;;;21.40;66.10;;;;;;4920599;29;20044;-71
2022/10/06 01:18:46;;;;;;;15.57;11.10;;;21.40;66.10;;;;;;4916782;29;20028;-72
2022/10/06 01:21:35;;;;;;;16.02;10.93;;;21.40;66.20;;;;;;4919614;29;20032;-71
2022/10/06 01:24:02;;;;;;;15.02;11.27;;;21.40;66.10;;;;;;4933353;29;20040;-71
2022/10/06 01:26:32;;;;;;;15.95;11.10;;;21.40;66.10;;;;;;4919037;29;20055;-71
2022/10/06 01:28:58;;;;;;;17.57;10.77;;;21.40;66.20;;;;;;4919823;29;20087;-81
2022/10/06 01:31:25;;;;;;;16.55;9.85;;;21.40;66.40;;;;;;4916380;29;20075;-81
2022/10/06 01:33:55;;;;;;;12.75;4.80;;;21.40;66.20;;;;;;4897307;29;20036;-70
2022/10/06 01:36:21;;;;;;;12.68;5.45;;;21.40;66.50;;;;;;4923267;29;20032;-70
2022/10/06 01:38:49;;;;;;;11.85;6.53;;;21.30;65.70;;;;;;4911925;29;20025;-70
2022/10/06 01:41:15;;;;;;;15.07;7.38;;;21.30;65.80;;;;;;4931027;29;20024;-70
2022/10/06 01:43:41;;;;;;;13.23;7.35;;;21.30;65.90;;;;;;4922970;29;20039;-70
2022/10/06 01:46:07;;;;;;;11.88;6.15;;;21.30;66.00;;;;;;4898476;29;20039;-70
2022/10/06 01:48:35;;;;;;;10.77;6.22;;;21.30;65.70;;;;;;4930951;29;20037;-72
2022/10/06 01:51:01;;;;;;;13.38;7.32;;;21.40;65.90;;;;;;4922589;29;20032;-72
2022/10/06 01:53:29;;;;;;;13.35;7.35;;;21.40;65.90;;;;;;4913587;29;20780;-73
2022/10/06 01:55:58;;;;;;;13.52;7.80;;;21.30;65.90;;;;;;4916993;29;20036;-73
2022/10/06 01:58:26;;;;;;;14.63;7.78;;;21.30;65.90;;;;;;4926482;29;20035;-73
2022/10/06 02:00:53;;;;;;;11.73;7.47;;;21.40;66.00;;;;;;4871845;29;20057;-73
2022/10/06 02:03:19;;;;;;;11.98;6.72;;;21.40;66.00;;;;;;4904829;29;20111;-73
2022/10/06 02:05:45;;;;;;;18.52;7.30;;;21.30;66.10;;;;;;4922027;29;20251;-70
2022/10/06 02:08:11;;;;;;;12.30;7.60;;;21.30;66.20;;;;;;4923240;29;20036;-70
2022/10/06 02:10:38;;;;;;;14.85;7.50;;;21.40;66.80;;;;;;4916723;29;20090;-70
2022/10/06 02:13:08;;;;;;;10.98;6.90;;;21.40;66.40;;;;;;4909669;29;20035;-71
2022/10/06 02:15:35;;;;;;;18.27;6.90;;;21.40;66.60;;;;;;4918861;29;20047;-71
2022/10/06 02:18:00;;;;;;;15.75;6.80;;;21.30;66.50;;;;;;4920060;29;20493;-70
2022/10/06 02:20:26;;;;;;;12.75;6.90;;;21.40;67.30;;;;;;4918980;29;20065;-70
2022/10/06 02:22:52;;;;;;;12.25;6.53;;;21.40;66.60;;;;;;4919624;29;20024;-71
2022/10/06 02:25:18;;;;;;;14.52;6.63;;;21.40;66.50;;;;;;4909714;29;20039;-70
2022/10/06 02:27:44;;;;;;;11.38;7.15;;;21.40;66.50;;;;;;4938876;29;20119;-71
2022/10/06 02:30:13;;;;;;;11.88;6.93;;;21.40;66.50;;;;;;4901318;29;20032;-70
2022/10/06 02:32:41;;;;;;;11.35;7.07;;;21.40;66.70;;;;;;4924496;29;20050;-71
2022/10/06 02:35:11;;;;;;;12.38;6.70;;;21.40;66.40;;;;;;4925767;29;20035;-70
2022/10/06 02:37:39;;;;;;;12.25;6.47;;;21.40;66.50;;;;;;4919477;29;20051;-71
2022/10/06 02:40:06;;;;;;;10.93;6.80;;;21.40;66.50;;;;;;4919495;29;20035;-71
2022/10/06 02:42:35;;;;;;;11.02;6.68;;;21.40;66.70;;;;;;4916153;29;20388;-70
2022/10/06 02:45:01;;;;;;;14.65;6.50;;;21.40;66.70;;;;;;4925643;29;20067;-70
2022/10/06 02:47:28;;;;;;;13.00;6.55;;;21.40;66.80;;;;;;4896010;29;20056;-70
2022/10/06 02:49:53;;;;;;;10.82;6.35;;;21.30;68.10;;;;;;4905578;29;20043;-70
2022/10/06 02:52:19;;;;;;;12.80;6.93;;;21.30;67.20;;;;;;4906057;29;20387;-70
2022/10/06 02:54:47;;;;;;;12.38;6.78;;;21.40;67.90;;;;;;4914907;29;20024;-71
2022/10/06 02:57:14;;;;;;;13.05;7.00;;;21.40;68.10;;;;;;4897148;29;20028;-70
2022/10/06 02:59:41;;;;;;;11.63;6.20;;;21.40;68.50;;;;;;4942163;29;20496;-70
2022/10/06 03:02:07;;;;;;;10.63;6.47;;;21.40;68.50;;;;;;4920255;29;20059;-71
2022/10/06 03:04:35;;;;;;;13.20;6.20;;;21.40;68.50;;;;;;4931998;29;20032;-70
2022/10/06 03:07:00;;;;;;;13.30;6.63;;;21.40;68.70;;;;;;4920717;29;20310;-71
2022/10/06 03:09:31;;;;;;;11.25;6.57;;;21.30;68.90;;;;;;4898130;29;20131;-71
2022/10/06 03:11:57;;;;;;;9.45;6.40;;;21.40;68.80;;;;;;4918884;29;20462;-71
2022/10/06 03:14:32;;;;;;;11.40;6.70;;;21.30;69.10;;;;;;4914839;29;20039;-70
2022/10/06 03:16:58;;;;;;;13.60;6.43;;;21.30;68.60;;;;;;4921185;29;20028;-70
2022/10/06 03:19:27;;;;;;;11.40;6.93;;;21.30;68.80;;;;;;4907310;29;20043;-70
2022/10/06 03:21:53;;;;;;;10.65;6.03;;;21.40;69.20;;;;;;4909076;29;20118;-70
2022/10/06 03:24:21;;;;;;;9.05;5.65;;;21.40;69.40;;;;;;4901761;29;20032;-70
2022/10/06 03:26:51;;;;;;;11.45;6.30;;;21.40;69.40;;;;;;4917530;29;20794;-71
2022/10/06 03:29:19;;;;;;;13.18;6.30;;;21.40;69.40;;;;;;4916611;29;20046;-70
2022/10/06 03:31:50;;;;;;;12.32;6.57;;;21.40;68.70;;;;;;4923681;29;20032;-71
2022/10/06 03:34:16;;;;;;;12.55;6.22;;;21.40;69.20;;;;;;4901309;29;20437;-70
2022/10/06 03:36:43;;;;;;;11.10;5.68;;;21.40;69.40;;;;;;4919970;29;20444;-70
2022/10/06 03:39:09;;;;;;;15.00;6.50;;;21.40;69.60;;;;;;4922314;29;20035;-70
2022/10/06 03:41:36;;;;;;;12.60;6.30;;;21.40;69.10;;;;;;4916273;29;20097;-70
2022/10/06 03:44:04;;;;;;;13.02;6.50;;;21.40;69.20;;;;;;4905681;29;20036;-70
2022/10/06 03:46:34;;;;;;;15.95;6.30;;;21.40;69.40;;;;;;4937136;29;20034;-70
2022/10/06 03:49:04;;;;;;;10.15;5.90;;;21.40;69.00;;;;;;4912827;29;20115;-70
2022/10/06 03:51:36;;;;;;;11.73;6.15;;;21.40;69.40;;;;;;4916804;29;20070;-70
2022/10/06 03:54:02;;;;;;;10.77;6.35;;;21.40;69.50;;;;;;4937011;29;20039;-70
2022/10/06 03:56:35;;;;;;;10.93;5.85;;;21.40;69.40;;;;;;4933909;29;20091;-70
2022/10/06 03:59:08;;;;;;;12.50;6.45;;;21.40;69.40;;;;;;4925858;29;20032;-70
2022/10/06 04:01:40;;;;;;;9.32;5.75;;;21.40;69.30;;;;;;4930528;29;20063;-71
2022/10/06 04:04:08;;;;;;;10.90;5.80;;;21.40;69.70;;;;;;4925251;29;20051;-71
2022/10/06 04:06:37;;;;;;;9.00;5.60;;;21.40;69.20;;;;;;4931404;29;20087;-71
2022/10/06 04:09:08;;;;;;;11.65;5.88;;;21.40;69.80;;;;;;4917613;29;20040;-71
2022/10/06 04:11:36;;;;;;;9.67;5.63;;;21.40;69.70;;;;;;4911910;29;20024;-71
2022/10/06 04:14:05;;;;;;;9.73;5.47;;;21.40;69.70;;;;;;4935061;29;20033;-71
2022/10/06 04:16:32;;;;;;;9.82;5.90;;;21.40;69.60;;;;;;4913399;29;20028;-70
2022/10/06 04:19:10;;;;;;;10.35;5.30;;;21.40;69.70;;;;;;4906643;29;20417;-71
2022/10/06 04:21:42;;;;;;;12.15;5.72;;;21.40;69.50;;;;;;4935460;29;20495;-70
2022/10/06 04:24:11;;;;;;;11.40;5.82;;;21.40;69.80;;;;;;4916118;29;20484;-71
2022/10/06 04:26:43;;;;;;;11.93;5.60;;;21.40;69.40;;;;;;4904923;29;20059;-70
2022/10/06 04:29:10;;;;;;;13.48;5.75;;;21.40;69.60;;;;;;4924509;29;20272;-71
2022/10/06 04:31:38;;;;;;;11.27;5.60;;;21.40;69.70;;;;;;4913871;29;20063;-70
2022/10/06 04:34:08;;;;;;;10.68;5.70;;;21.40;70.10;;;;;;4917842;29;20098;-71
2022/10/06 04:36:38;;;;;;;9.23;5.35;;;21.40;69.70;;;;;;4915365;29;20028;-71
2022/10/06 04:39:09;;;;;;;9.27;5.68;;;21.40;69.80;;;;;;4916671;29;20028;-70
2022/10/06 04:41:37;;;;;;;8.18;5.53;;;21.40;69.60;;;;;;4920105;29;20028;-70
2022/10/06 04:44:04;;;;;;;10.43;5.43;;;21.40;69.70;;;;;;4935309;29;20127;-70
2022/10/06 04:46:31;;;;;;;9.88;5.47;;;21.40;69.60;;;;;;4905244;29;20066;-70
2022/10/06 04:48:58;;;;;;;10.95;5.65;;;21.40;69.60;;;;;;4915354;29;20032;-71
2022/10/06 04:51:27;;;;;;;11.80;5.57;;;21.40;69.60;;;;;;4934227;29;20028;-70
2022/10/06 04:53:54;;;;;;;13.32;5.90;;;21.40;69.70;;;;;;4922660;29;20028;-70
2022/10/06 04:56:28;;;;;;;10.93;5.72;;;21.40;69.90;;;;;;4911773;29;20040;-70
2022/10/06 04:59:03;;;;;;;12.20;5.22;;;21.40;69.90;;;;;;4903214;29;20034;-72
2022/10/06 05:01:35;;;;;;;11.50;5.50;;;21.40;69.70;;;;;;4867348;29;20069;-71
2022/10/06 05:04:05;;;;;;;9.35;5.30;;;21.40;69.60;;;;;;4860931;29;20115;-73
2022/10/06 05:06:40;;;;;;;11.93;5.00;;;21.40;69.80;;;;;;4875403;29;20033;-72
2022/10/06 05:09:12;;;;;;;9.15;4.70;;;21.40;69.10;;;;;;4882802;29;20052;-72
2022/10/06 05:11:43;;;;;;;9.90;4.90;;;21.40;68.80;;;;;;4861962;29;20387;-73
2022/10/06 05:14:11;;;;;;;9.13;4.90;;;21.40;68.60;;;;;;4851840;29;20037;-73
2022/10/06 05:16:41;;;;;;;10.57;4.90;;;21.40;68.50;;;;;;4866314;29;20454;-72
2022/10/06 05:19:10;;;;;;;11.05;5.07;;;21.40;68.40;;;;;;4857449;29;20669;-72
2022/10/06 05:21:37;;;;;;;7.88;5.00;;;21.40;68.20;;;;;;4881757;29;20083;-73
2022/10/06 05:24:04;;;;;;;8.48;4.75;;;21.40;68.10;;;;;;4835441;29;20037;-73
2022/10/06 05:26:32;;;;;;;8.95;5.05;;;21.40;67.90;;;;;;4863279;29;20029;-72
2022/10/06 05:29:00;;;;;;;7.25;4.85;;;21.40;68.00;;;;;;4868138;29;20045;-72
2022/10/06 05:31:28;;;;;;;7.90;4.65;;;21.40;68.40;;;;;;4879853;29;20026;-73
2022/10/06 05:33:56;;;;;;;10.82;4.80;;;21.40;67.80;;;;;;4881942;29;20056;-73
2022/10/06 05:36:24;;;;;;;7.32;4.63;;;21.40;67.80;;;;;;4864307;29;20090;-72
2022/10/06 05:38:52;;;;;;;10.13;5.35;;;21.40;67.80;;;;;;4869625;29;20040;-73
2022/10/06 05:41:23;;;;;;;10.57;4.90;;;21.40;67.80;;;;;;4865083;29;20432;-72
2022/10/06 05:43:50;;;;;;;7.22;4.88;;;21.40;67.80;;;;;;4860582;29;20065;-72
2022/10/06 05:46:19;;;;;;;8.40;5.15;;;21.40;68.30;;;;;;4843635;29;20033;-72
2022/10/06 05:48:48;;;;;;;9.60;4.97;;;21.40;67.70;;;;;;4862146;29;20447;-73
2022/10/06 05:51:16;;;;;;;8.50;4.75;;;21.40;67.70;;;;;;4863953;29;20486;-73
2022/10/06 05:53:43;;;;;;;8.57;4.72;;;21.40;67.60;;;;;;4885282;29;20321;-73
2022/10/06 05:56:11;;;;;;;7.47;4.50;;;21.40;67.60;;;;;;4849768;29;20555;-72
2022/10/06 05:58:40;;;;;;;10.23;5.07;;;21.50;67.70;;;;;;4883522;29;20034;-73
2022/10/06 06:01:15;;;;;;;9.35;5.65;;;21.50;67.70;;;;;;4868400;29;20443;-73
2022/10/06 06:03:46;;;;;;;8.93;4.80;;;21.50;67.70;;;;;;4866477;29;20030;-73
2022/10/06 06:06:19;;;;;;;8.23;4.80;;;21.50;67.70;;;;;;4844591;29;20033;-74
2022/10/06 06:08:47;;;;;;;8.43;5.10;;;21.50;67.70;;;;;;4869726;29;20033;-72
2022/10/06 06:11:13;;;;;;;10.88;4.88;;;21.50;67.60;;;;;;4862677;29;20068;-73
2022/10/06 06:13:39;;;;;;;10.98;5.00;;;21.50;67.80;;;;;;4869356;29;20387;-73
2022/10/06 06:16:14;;;;;;;9.60;5.05;;;21.50;67.60;;;;;;4872186;29;20089;-72
2022/10/06 06:18:41;;;;;;;9.80;5.55;;;21.50;67.70;;;;;;4866586;29;20026;-73
2022/10/06 06:21:10;;;;;;;10.77;4.90;;;21.50;67.60;;;;;;4862914;29;20025;-72
2022/10/06 06:23:39;;;;;;;8.93;4.93;;;21.50;67.60;;;;;;4865830;29;20025;-73
2022/10/06 06:26:11;;;;;;;9.48;5.07;;;21.50;67.50;;;;;;4866728;29;20402;-73
2022/10/06 06:28:42;;;;;;;11.10;5.28;;;21.50;67.50;;;;;;4873555;29;20037;-72
2022/10/06 06:31:16;;;;;;;10.63;5.50;;;21.50;67.60;;;;;;4857963;29;20037;-73
2022/10/06 06:33:42;;;;;;;10.48;5.93;;;21.50;67.50;;;;;;4864761;29;20093;-74
2022/10/06 06:36:21;;;;;;;12.73;6.43;;;21.50;67.60;;;;;;4864341;29;20116;-74
2022/10/06 06:38:56;;;;;;;12.10;5.57;;;21.50;67.60;;;;;;4842534;29;20033;-73
2022/10/06 06:41:31;;;;;;;10.25;5.50;;;21.50;67.50;;;;;;4858836;29;20030;-74
2022/10/06 06:44:07;;;;;;;11.70;6.00;;;21.50;67.40;;;;;;4864603;29;20044;-74
2022/10/06 06:46:38;;;;;;;11.30;6.03;;;21.50;67.40;;;;;;4860908;29;20033;-73
2022/10/06 06:49:10;;;;;;;8.27;5.00;;;21.50;67.20;;;;;;4843951;29;20521;-74
2022/10/06 06:51:42;;;;;;;10.45;5.38;;;21.50;67.20;;;;;;4865344;29;20098;-74
2022/10/06 06:54:09;;;;;;;9.80;5.40;;;21.50;67.20;;;;;;4863010;29;20384;-74
2022/10/06 06:56:38;;;;;;;9.45;5.65;;;21.50;67.20;;;;;;4873893;29;20462;-74
2022/10/06 06:59:10;;;;;;;9.32;5.40;;;21.50;67.20;;;;;;4878480;29;20104;-74
2022/10/06 07:01:44;;;;;;;;;;;21.50;67.10;;;;;;4864677;29;20033;-74
2022/10/06 07:04:12;;;;;;;10.90;4.97;;;21.50;67.00;;;;;;4889048;29;19916;-73
2022/10/06 07:06:46;;;;;;;10.32;5.60;;;21.50;67.00;;;;;;4876653;29;20098;-73
2022/10/06 07:09:13;;;;;;;10.38;6.15;;;21.50;67.00;;;;;;4876604;29;20033;-74
2022/10/06 07:11:39;;;;;;;11.07;6.28;;;21.50;67.10;;;;;;4870223;29;20032;-74
2022/10/06 07:14:13;;;;;;;12.88;7.10;;;21.50;67.70;;;;;;4871957;29;20030;-74
2022/10/06 07:25:23;;;;;;;11.73;6.30;;;21.50;67.00;;;;;;4871854;29;20041;-72
2022/10/06 07:27:51;;;;;;;11.98;7.07;;;21.50;67.00;;;;;;4863615;29;20383;-73
2022/10/06 07:30:31;;;;;;;12.85;6.22;;;21.50;67.00;;;;;;4860250;29;20029;-73
2022/10/06 07:33:03;;;;;;;9.30;6.00;;;21.50;66.90;;;;;;4859947;29;20108;-73
2022/10/06 07:35:30;;;;;;;12.32;6.20;;;21.50;66.90;;;;;;4849089;29;20085;-73
2022/10/06 07:38:01;;;;;;;11.43;6.07;;;21.50;67.30;;;;;;4860038;29;20044;-83
2022/10/06 07:40:28;;;;;;;16.25;5.97;;;21.50;67.60;;;;;;4860510;29;20065;-83
2022/10/06 07:42:54;;;;;;;119.32;8.85;;;21.50;66.80;;;;;;4845282;29;20089;-82
2022/10/06 07:45:38;;;;;;;117.18;9.07;;;21.50;65.30;;;;;;4868297;29;20029;-83
2022/10/06 07:48:16;;;;;;;53.13;6.15;;;21.50;64.70;;;;;;4860421;29;20030;-83
2022/10/06 07:50:49;;;;;;;30.52;5.63;;;21.40;63.50;;;;;;4869372;29;20029;-85
2022/10/06 07:53:18;;;;;;;41.88;6.55;;;21.40;65.60;;;;;;4864073;29;20219;-82
2022/10/06 07:55:50;;;;;;;33.58;6.10;;;21.40;64.10;;;;;;4874178;29;20033;-83
2022/10/06 07:58:25;;;;;;;44.05;6.57;;;21.40;65.10;;;;;;4834464;29;20034;-87
2022/10/06 08:00:51;;;;;;;27.40;4.47;;;21.40;64.40;;;;;;4861774;29;20021;-83
2022/10/06 08:03:18;;;;;;;25.65;4.53;;;21.50;63.70;;;;;;4865751;29;20061;-80
2022/10/06 08:05:55;;;;;;;16.40;3.10;;;21.50;64.70;;;;;;4867654;29;20056;-76
2022/10/06 08:08:21;;;;;;;15.70;3.83;;;21.50;63.50;;;;;;4869933;29;20033;-78
2022/10/06 08:10:55;;;;;;;20.80;3.20;;;21.60;64.20;;;;;;4864024;29;20065;-79
2022/10/06 08:13:22;;;;;;;12.38;2.40;;;21.50;62.60;;;;;;4879930;29;20121;-78
2022/10/06 08:15:49;;;;;;;17.92;2.72;;;21.60;63.50;;;;;;4850246;29;20033;-72
2022/10/06 08:18:16;;;;;;;32.10;3.40;;;21.50;61.90;;;;;;4863683;29;20045;-72
2022/10/06 08:20:42;;;;;;;14.57;2.60;;;21.60;61.70;;;;;;4866926;29;20033;-72
2022/10/06 08:23:10;;;;;;;13.57;2.63;;;21.60;61.90;;;;;;4882568;29;20033;-71
2022/10/06 08:25:42;;;;;;;17.30;3.03;;;21.70;61.90;;;;;;4864250;29;20022;-72
2022/10/06 08:28:11;;;;;;;12.15;2.42;;;21.70;62.40;;;;;;4874761;29;20481;-71
2022/10/06 08:30:38;;;;;;;21.60;2.60;;;21.70;62.60;;;;;;4858708;29;20042;-70
2022/10/06 08:33:05;;;;;;;23.25;3.15;;;21.70;62.70;;;;;;4872286;29;20478;-72
2022/10/06 08:35:32;;;;;;;15.38;2.70;;;21.80;62.90;;;;;;4870701;29;20037;-71
2022/10/06 08:37:58;;;;;;;13.88;2.13;;;21.80;63.10;;;;;;4874298;29;20145;-73
2022/10/06 08:40:25;;;;;;;12.82;2.42;;;21.80;63.20;;;;;;4856351;29;20561;-77
2022/10/06 08:42:54;;;;;;;10.45;2.72;;;21.80;63.20;;;;;;4856225;29;20069;-76
2022/10/06 08:45:28;;;;;;;13.55;3.30;;;21.80;63.40;;;;;;4858618;29;20098;-76
2022/10/06 08:48:15;;;;;;;14.77;4.05;;;21.70;63.30;;;;;;4856738;29;20069;-77
2022/10/06 08:51:06;;;;;;;12.27;5.32;;;21.70;62.90;;;;;;4861482;29;20300;-76
2022/10/06 08:53:45;;;;;;;10.82;4.15;;;21.60;62.40;;;;;;4858538;29;20117;-76
2022/10/06 08:56:34;;;;;;;13.93;4.50;;;21.60;61.90;;;;;;4857376;29;20514;-76
2022/10/06 08:59:06;;;;;;;9.23;3.58;;;21.60;61.30;;;;;;4853889;29;20046;-75
2022/10/06 09:01:46;;;;;;;10.18;3.72;;;21.50;60.80;;;;;;4863674;29;20510;-76
2022/10/06 09:04:27;;;;;;;9.15;3.78;;;21.50;60.50;;;;;;4853502;29;20078;-76
2022/10/06 09:07:10;;;;;;;8.68;2.55;;;21.50;60.00;;;;;;4864323;29;20081;-76
2022/10/06 09:10:06;;;;;;;11.73;2.80;;;21.50;59.20;;;;;;4843754;29;20037;-76
2022/10/06 09:12:48;;;;;;;11.98;2.75;;;21.50;59.40;;;;;;4878629;29;20044;-75
2022/10/06 09:15:14;;;;;;;8.65;2.33;;;21.40;58.80;;;;;;4865263;29;20029;-76
2022/10/06 09:17:49;;;;;;;11.43;3.38;;;21.40;59.00;;;;;;4845325;29;20068;-77
2022/10/06 09:20:30;;;;;;;10.77;2.97;;;21.40;56.90;;;;;;4862174;29;20038;-73
2022/10/06 09:22:56;;;;;;;41.25;3.85;;;21.40;56.30;;;;;;4848181;29;20036;-79
2022/10/06 09:25:27;;;;;;;8.50;3.13;;;21.40;57.70;;;;;;4860683;29;20029;-80
2022/10/06 09:27:56;;;;;;;13.15;3.30;;;21.40;57.80;;;;;;4865036;29;20036;-78
2022/10/06 09:30:23;;;;;;;12.32;3.85;;;21.40;58.10;;;;;;4861916;29;20021;-81
2022/10/06 09:32:58;;;;;;;16.17;5.70;;;21.30;55.60;;;;;;4861126;29;20032;-80
2022/10/06 09:35:27;;;;;;;13.40;4.55;;;21.40;56.50;;;;;;4863985;29;20037;-81
2022/10/06 09:38:03;;;;;;;31.35;5.18;;;21.40;56.50;;;;;;4867923;29;20077;-80
2022/10/06 09:40:37;;;;;;;15.05;4.88;;;21.40;56.20;;;;;;4862118;29;20138;-81
2022/10/06 09:43:19;;;;;;;13.70;4.72;;;21.30;56.60;;;;;;4862594;29;20436;-81
2022/10/06 09:45:45;;;;;;;12.88;4.63;;;21.30;56.50;;;;;;4863838;29;20056;-81
2022/10/06 09:48:25;;;;;;;15.10;3.90;;;21.30;55.70;;;;;;4866822;29;20089;-81
2022/10/06 09:51:13;;;;;;;9.73;3.45;;;21.30;55.70;;;;;;4865867;29;20046;-80
2022/10/06 09:53:40;;;;;;;11.05;3.13;;;21.30;55.40;;;;;;4861836;29;20049;-72
2022/10/06 09:56:20;;;;;;;10.57;3.10;;;21.30;53.10;;;;;;4856849;29;20026;-75
2022/10/06 09:58:55;;;;;;;12.73;3.40;;;21.30;55.10;;;;;;4855505;29;20150;-72
2022/10/06 10:01:27;;;;;;;9.25;3.20;;;21.30;54.60;;;;;;4862763;29;20044;-73
2022/10/06 10:04:11;;;;;;;13.02;2.72;;;21.40;54.70;;;;;;4858132;29;20036;-73
2022/10/06 10:06:39;;;;;;;13.88;2.90;;;21.40;54.30;;;;;;4872019;29;20037;-72
2022/10/06 10:09:18;;;;;;;9.98;2.60;;;21.40;54.60;;;;;;4857621;29;20041;-73
2022/10/06 10:14:37;;;;;;;7.78;2.25;;;21.50;55.40;;;;;;4851899;29;20086;-73
2022/10/06 10:17:31;;;;;;;9.23;2.80;;;21.60;55.70;;;;;;4865036;29;20041;-72
2022/10/06 10:19:59;;;;;;;11.70;2.58;;;21.60;55.90;;;;;;4856219;29;20029;-73
2022/10/06 10:22:39;;;;;;;9.63;3.08;;;21.60;56.10;;;;;;4859239;29;20526;-73
2022/10/06 10:25:32;;;;;;;8.57;2.47;;;21.60;56.30;;;;;;4862042;29;20025;-73
2022/10/06 10:28:13;;;;;;;14.07;2.45;;;21.60;56.60;;;;;;4875029;29;20145;-73
2022/10/06 10:31:02;;;;;;;9.90;2.45;;;21.60;57.00;;;;;;4891060;29;20053;-73
2022/10/06 10:33:48;;;;;;;13.02;2.88;;;21.60;57.00;;;;;;4874739;29;20032;-73
2022/10/06 10:36:16;;;;;;;7.68;2.30;;;21.60;57.40;;;;;;4859635;29;20049;-73
2022/10/06 10:38:45;;;;;;;10.75;2.72;;;21.60;57.40;;;;;;4857511;29;20663;-74
2022/10/06 10:41:25;;;;;;;11.57;2.90;;;21.60;57.70;;;;;;4854151;29;20033;-74
2022/10/06 10:43:54;;;;;;;8.77;2.45;;;21.60;57.60;;;;;;4857136;29;20598;-74
2022/10/06 10:46:36;;;;;;;10.47;2.70;;;21.70;57.50;;;;;;4856109;29;20033;-75
2022/10/06 10:49:24;;;;;;;9.05;2.67;;;21.70;57.90;;;;;;4857306;29;20041;-74
2022/10/06 10:51:55;;;;;;;8.82;2.75;;;21.70;58.30;;;;;;4855561;29;20037;-79
2022/10/06 10:54:27;;;;;;;7.85;2.70;;;21.70;58.00;;;;;;4860901;29;20037;-79
2022/10/06 10:56:53;;;;;;;7.75;2.90;;;21.60;57.80;;;;;;4856383;29;20124;-79
2022/10/06 10:59:33;;;;;;;11.40;2.60;;;21.60;57.70;;;;;;4856597;29;20112;-82
2022/10/06 11:02:13;;;;;;;8.20;2.17;;;21.50;56.60;;;;;;4850252;29;20140;-75
2022/10/06 11:04:46;;;;;;;13.68;2.72;;;21.50;56.50;;;;;;4855095;29;20530;-76
2022/10/06 11:07:23;;;;;;;8.85;2.05;;;21.50;55.30;;;;;;4840496;29;20044;-76
2022/10/06 11:10:15;;;;;;;8.43;2.75;;;21.50;55.70;;;;;;4857568;29;20112;-73
2022/10/06 11:13:08;;;;;;;10.00;2.60;;;21.50;54.70;;;;;;4869671;29;20038;-75
2022/10/06 11:15:52;;;;;;;7.95;2.50;;;21.50;54.60;;;;;;4856758;29;20017;-73
2022/10/06 11:19:14;;;;;;;10.77;2.58;;;21.50;54.40;;;;;;4855533;29;20483;-72
2022/10/06 11:22:04;;;;;;;9.90;2.70;;;21.50;54.50;;;;;;4835703;29;20046;-72
2022/10/06 11:24:52;;;;;;;7.78;2.22;;;21.50;54.20;;;;;;4854041;29;20483;-72
2022/10/06 11:27:41;;;;;;;5.57;2.30;;;21.50;54.50;;;;;;4857027;29;20368;-73
2022/10/06 11:30:25;;;;;;;9.27;2.40;;;21.50;55.00;;;;;;4856140;29;20037;-73
2022/10/06 11:33:05;;;;;;;6.80;2.10;;;21.60;55.20;;;;;;4858009;29;20070;-72
2022/10/06 11:35:35;;;;;;;7.40;2.40;;;21.60;55.70;;;;;;4857769;29;20065;-72
2022/10/06 11:38:09;;;;;;;25.13;3.20;;;21.60;57.20;;;;;;4857380;29;20037;-73
2022/10/06 11:40:57;;;;;;;14.23;2.78;;;21.70;58.00;;;;;;4856518;29;20439;-72
2022/10/06 11:43:35;;;;;;;14.07;2.60;;;21.70;58.30;;;;;;4856093;29;20509;-73
2022/10/06 11:46:29;;;;;;;13.48;2.90;;;21.70;58.70;;;;;;4854884;29;20524;-72
2022/10/06 11:49:29;;;;;;;8.32;2.42;;;21.70;58.30;;;;;;4853859;29;20057;-73
2022/10/06 11:51:56;;;;;;;10.38;2.53;;;21.80;58.80;;;;;;4858261;29;20037;-72
2022/10/06 11:54:47;;;;;;;12.70;2.67;;;21.80;58.70;;;;;;4855849;29;20037;-72
2022/10/06 11:57:22;;;;;;;15.23;2.42;;;21.80;59.10;;;;;;4854288;29;20060;-69
2022/10/06 11:59:53;;;;;;;8.93;2.50;;;21.80;58.70;;;;;;4854228;29;20040;-73
2022/10/06 12:02:35;;;;;;;11.02;2.60;;;21.70;58.90;;;;;;4854010;29;20141;-74
2022/10/06 12:05:13;;;;;;;16.90;2.72;;;21.80;59.30;;;;;;4852011;29;20065;-72
2022/10/06 12:07:59;;;;;;;16.05;2.47;;;21.80;59.30;;;;;;4853763;29;20073;-72
2022/10/06 12:10:28;;;;;;;10.52;2.67;;;21.80;59.10;;;;;;4847712;29;20049;-73
2022/10/06 12:13:09;;;;;;;12.00;2.40;;;21.70;59.20;;;;;;4854706;29;20112;-74
2022/10/06 12:16:14;;;;;;;11.63;2.45;;;21.70;59.20;;;;;;4852350;29;20072;-73
2022/10/06 12:19:00;;;;;;;9.80;2.10;;;21.70;59.30;;;;;;4855116;29;20518;-73
2022/10/06 12:21:32;;;;;;;7.68;2.55;;;21.70;59.50;;;;;;4853294;29;20033;-73
2022/10/06 12:24:26;;;;;;;12.20;2.30;;;21.70;59.50;;;;;;4855355;29;20482;-73
2022/10/06 12:27:01;;;;;;;6.43;2.08;;;21.70;59.50;;;;;;4854175;29;20183;-73
2022/10/06 12:29:47;;;;;;;7.32;2.40;;;21.70;59.50;;;;;;4853766;29;20410;-73
2022/10/06 12:32:48;;;;;;;10.38;2.85;;;21.70;59.40;;;;;;4855246;29;20038;-73
2022/10/06 12:35:36;;;;;;;10.27;2.35;;;21.70;59.60;;;;;;4858055;29;20025;-73
2022/10/06 12:38:25;;;;;;;7.75;2.17;;;21.70;59.60;;;;;;4859781;29;20037;-73
2022/10/06 12:40:54;;;;;;;4.70;1.92;;;21.60;59.80;;;;;;4858727;29;20030;-73
2022/10/06 12:43:26;;;;;;;7.57;2.30;;;21.60;60.20;;;;;;4858614;29;20475;-73
2022/10/06 12:46:06;;;;;;;9.43;2.50;;;21.60;60.00;;;;;;4859467;29;20300;-73
2022/10/06 12:48:42;;;;;;;5.65;2.10;;;21.70;60.20;;;;;;4842915;29;20181;-72
2022/10/06 12:51:32;;;;;;;7.70;2.28;;;21.70;60.40;;;;;;4860863;29;20360;-73
2022/10/06 12:54:18;;;;;;;8.07;2.10;;;21.70;60.30;;;;;;4861633;29;20072;-73
2022/10/06 12:56:57;;;;;;;5.72;1.90;;;21.70;60.40;;;;;;4861772;29;20522;-73
2022/10/06 12:59:34;;;;;;;7.88;2.10;;;21.70;60.50;;;;;;4859823;29;20034;-73
2022/10/06 13:02:17;;;;;;;4.97;2.10;;;21.70;60.50;;;;;;4860776;29;20034;-73
2022/10/06 13:05:01;;;;;;;7.95;2.58;;;21.70;60.50;;;;;;4861452;29;20030;-73
2022/10/06 13:07:29;;;;;;;6.53;2.38;;;21.70;60.80;;;;;;4845512;29;20482;-73
2022/10/06 13:10:13;;;;;;;6.80;2.15;;;21.70;60.50;;;;;;4859547;29;20111;-73
2022/10/06 13:12:41;;;;;;;5.70;2.10;;;21.70;60.80;;;;;;4860564;29;20116;-72
2022/10/06 13:15:14;;;;;;;8.45;1.98;;;21.70;60.80;;;;;;4860923;29;20112;-73
2022/10/06 13:17:43;;;;;;;5.53;1.83;;;21.60;61.10;;;;;;4861598;29;20045;-73